ADDS METAR Data INFO
IDs: Format: Raw Decoded Include TAF

Data at: 2242 UTC 11 Dec 2017

KSYI 112235Z AUTO 19012KT 10SM CLR 11/M00 A2991 RMK A01
KSYI 112215Z AUTO 20013KT 10SM CLR 12/M01 A2993 RMK A01
KSYI 112155Z AUTO 21012G17KT 10SM CLR 13/M01 A2993 RMK A01
KSYI 112135Z AUTO 21010G17KT 10SM CLR 14/M01 A2994 RMK A01
KSYI 112115Z AUTO 21013G19KT 10SM CLR 14/M01 A2994 RMK A01
KSYI 112055Z AUTO 21012KT 10SM CLR 14/M00 A2994 RMK A01
KSYI 112035Z AUTO 23014KT 10SM CLR 14/M01 A2995 RMK A01
KSYI 112015Z AUTO 21010G17KT 10SM CLR 14/M01 A2996 RMK A01
KSYI 111955Z AUTO 20012KT 10SM CLR 14/M00 A2997 RMK A01
KSYI 111935Z AUTO 22009KT 10SM CLR 14/M00 A2998 RMK A01
KSYI 111915Z AUTO 20010KT 10SM CLR 14/M00 A2999 RMK A01
KSYI 111855Z AUTO 21011KT 10SM CLR 14/M00 A3001 RMK A01
KSYI 111835Z AUTO 21010G15KT 10SM CLR 13/M01 A3003 RMK A01
KSYI 111815Z AUTO 20010KT 10SM CLR 13/M01 A3005 RMK A01
KSYI 111755Z AUTO 24011KT 10SM CLR 13/M01 A3006 RMK A01
KSYI 111735Z AUTO 22010KT 10SM CLR 12/M01 A3007 RMK A01
KSYI 111715Z AUTO 20008KT 10SM CLR 11/M01 A3008 RMK A01
KSYI 111655Z AUTO 20010KT 10SM CLR 11/M00 A3010 RMK A01
KSYI 111635Z AUTO 18008KT 10SM CLR 10/M00 A3011 RMK A01
KSYI 111615Z AUTO VRB04KT 10SM CLR 09/M01 A3012 RMK A01
KSYI 111555Z AUTO 21009KT 10SM CLR 08/M01 A3014 RMK A01
KSYI 111535Z AUTO 19007KT 10SM CLR 07/M01 A3014 RMK A01
KSYI 111515Z AUTO 20006KT 10SM CLR 06/M01 A3014 RMK A01
KSYI 111455Z AUTO 20007KT 10SM CLR 05/M01 A3015 RMK A01
KSYI 111435Z AUTO 19007KT 10SM CLR 04/M01 A3014 RMK A01
KSYI 111415Z AUTO 14003KT 10SM CLR 02/M02 A3014 RMK A01
KSYI 111355Z AUTO 00000KT 10SM CLR 00/M02 A3015 RMK A01
KSYI 111335Z AUTO 12003KT 10SM CLR M02/M04 A3014 RMK A01
KSYI 111315Z AUTO 00000KT 10SM CLR M02/M04 A3015 RMK A01
KSYI 111255Z AUTO 00000KT 10SM CLR M03/M04 A3015 RMK A01
KSYI 111235Z AUTO 00000KT 10SM CLR M03/M04 A3014 RMK A01
KSYI 111215Z AUTO 12003KT 10SM CLR M02/M05 A3014 RMK A01
KSYI 111155Z AUTO 11003KT 10SM CLR M02/M05 A3015 RMK A01
KSYI 111135Z AUTO 11004KT 10SM CLR M03/M05 A3015 RMK A01
KSYI 111115Z AUTO 11004KT 10SM CLR M02/M05 A3016 RMK A01
KSYI 111055Z AUTO 10004KT 10SM CLR M02/M05 A3015 RMK A01
KSYI 111035Z AUTO 11004KT 10SM CLR M02/M05 A3016 RMK A01
KSYI 111015Z AUTO 10004KT 10SM CLR M02/M04 A3015 RMK A01
KSYI 110955Z AUTO 10004KT 10SM CLR M02/M04 A3016 RMK A01
KSYI 110935Z AUTO 09004KT 10SM CLR M03/M05 A3016 RMK A01
KSYI 110915Z AUTO 10003KT 10SM CLR M02/M04 A3017 RMK A01
KSYI 110855Z AUTO 11003KT 10SM CLR M02/M04 A3016 RMK A01
KSYI 110835Z AUTO 10003KT 10SM CLR M03/M05 A3017 RMK A01
KSYI 110815Z AUTO 00000KT 10SM CLR M02/M04 A3017 RMK A01
KSYI 110755Z AUTO 00000KT 10SM CLR M01/M05 A3017 RMK A01
KSYI 110735Z AUTO 17003KT 10SM CLR 01/M05 A3017 RMK A01
KSYI 110715Z AUTO 00000KT 10SM CLR M01/M04 A3017 RMK A01
KSYI 110655Z AUTO 00000KT 10SM CLR 00/M05 A3017 RMK A01
KSYI 110635Z AUTO 14003KT 10SM CLR 01/M05 A3017 RMK A01
KSYI 110615Z AUTO 15003KT 10SM CLR 01/M05 A3018 RMK A01
KSYI 110555Z AUTO 13004KT 10SM CLR 01/M05 A3019 RMK A01
KSYI 110535Z AUTO 17005KT 10SM CLR 01/M05 A3019 RMK A01
KSYI 110515Z AUTO 17005KT 10SM CLR 03/M05 A3020 RMK A01
KSYI 110455Z AUTO 16005KT 10SM CLR 03/M05 A3020 RMK A01
KSYI 110435Z AUTO 16005KT 10SM CLR 02/M05 A3020 RMK A01
KSYI 110415Z AUTO 16004KT 10SM CLR 03/M05 A3020 RMK A01
KSYI 110355Z AUTO 16004KT 10SM CLR 02/M05 A3020 RMK A01
KSYI 110335Z AUTO 17005KT 10SM CLR 02/M05 A3020 RMK A01
KSYI 110315Z AUTO 17005KT 10SM CLR 02/M05 A3020 RMK A01
KSYI 110255Z AUTO 19007KT 10SM CLR 01/M05 A3019 RMK A01
KSYI 110235Z AUTO 18005KT 10SM CLR 02/M05 A3019 RMK A01
KSYI 110215Z AUTO 17004KT 10SM CLR 01/M05 A3019 RMK A01
KSYI 110155Z AUTO 00000KT 10SM CLR 02/M06 A3019 RMK A01
KSYI 110135Z AUTO 00000KT 10SM CLR 03/M06 A3019 RMK A01
KSYI 110115Z AUTO 00000KT 10SM CLR 03/M06 A3018 RMK A01
KSYI 110055Z AUTO 20004KT 10SM CLR 02/M06 A3017 RMK A01
KSYI 110035Z AUTO 21006KT 10SM CLR 03/M06 A3016 RMK A01
KSYI 110015Z AUTO 22006KT 10SM CLR 04/M06 A3015 RMK A01
KSYI 102355Z AUTO 22005KT 10SM CLR 04/M06 A3015 RMK A01
KSYI 102335Z AUTO 20006KT 10SM CLR 02/M05 A3014 RMK A01
KSYI 102315Z AUTO 19004KT 10SM CLR 04/M06 A3014 RMK A01
KSYI 102255Z AUTO 20008KT 10SM CLR 05/M06 A3014 RMK A01
KSYI 102235Z AUTO 21010KT 10SM CLR 06/M06 A3014 RMK A01
KSYI 102215Z AUTO 21010KT 10SM CLR 06/M05 A3015 RMK A01
KSYI 102155Z AUTO 20011KT 10SM CLR 07/M05 A3015 RMK A01
KSYI 102135Z AUTO 20010G16KT 10SM CLR 08/M06 A3016 RMK A01
KSYI 102115Z AUTO 21010G18KT 10SM CLR 08/M06 A3016 RMK A01
KSYI 102055Z AUTO 22012KT 10SM CLR 08/M06 A3016 RMK A01
KSYI 102035Z AUTO 21011KT 10SM CLR 08/M06 A3017 RMK A01
KSYI 102015Z AUTO 21010KT 10SM CLR 08/M05 A3017 RMK A01
KSYI 101955Z AUTO 21012G17KT 10SM CLR 08/M06 A3017 RMK A01
KSYI 101935Z AUTO 23008G15KT 10SM CLR 07/M06 A3018 RMK A01
KSYI 101915Z AUTO 23014KT 10SM CLR 07/M06 A3018 RMK A01
KSYI 101855Z AUTO 23008G15KT 10SM CLR 07/M06 A3019 RMK A01
KSYI 101835Z AUTO 21007G14KT 10SM CLR 06/M05 A3021 RMK A01
KSYI 101815Z AUTO 24009KT 10SM CLR 06/M05 A3022 RMK A01
KSYI 101755Z AUTO 23011G17KT 10SM CLR 06/M05 A3022 RMK A01
KSYI 101735Z AUTO 21010G16KT 10SM CLR 05/M05 A3023 RMK A01
KSYI 101715Z AUTO 21010G18KT 10SM CLR 05/M05 A3024 RMK A01
KSYI 101655Z AUTO 19013KT 10SM CLR 04/M05 A3025 RMK A01
KSYI 101635Z AUTO 20013KT 10SM CLR 03/M05 A3026 RMK A01
KSYI 101615Z AUTO 21011KT 10SM CLR 03/M06 A3027 RMK A01
KSYI 101555Z AUTO 22009KT 10SM CLR 02/M05 A3029 RMK A01
KSYI 101535Z AUTO 21007KT 10SM CLR 01/M05 A3029 RMK A01
KSYI 101515Z AUTO 19006KT 10SM CLR 00/M04 A3029 RMK A01
KSYI 101455Z AUTO 18003KT 10SM CLR M01/M05 A3029 RMK A01
KSYI 101435Z AUTO 20004KT 10SM CLR M02/M04 A3029 RMK A01
KSYI 101415Z AUTO 00000KT 10SM CLR M03/M05 A3029 RMK A01
KSYI 101355Z AUTO 00000KT 9SM CLR M05/M06 A3029 RMK A01
KSYI 101335Z AUTO 00000KT 8SM CLR M06/M06 A3029 RMK A01
KSYI 101315Z AUTO 00000KT 7SM CLR M07/M08 A3028 RMK A01
KSYI 101255Z AUTO 00000KT 7SM CLR M08/M08 A3027 RMK A01
KSYI 101235Z AUTO 00000KT 8SM CLR M08/M08 A3026 RMK A01
KSYI 101215Z AUTO 00000KT 8SM CLR M07/M08 A3026 RMK A01
KSYI 101155Z AUTO 00000KT 8SM CLR M07/M08 A3026 RMK A01
KSYI 101135Z AUTO 00000KT 7SM CLR M07/M08 A3026 RMK A01
KSYI 101115Z AUTO 00000KT 8SM CLR M07/M08 A3025 RMK A01
KSYI 101055Z AUTO 00000KT 10SM CLR M07/M08 A3025 RMK A01